Terminal Aerodrome Forecast
Issued by NWS

Home | Current Version | Previous Version | Text Only | Print | Product List | Glossary On
Versions: 1 2 3 4 5 6 7 8 9 10 11 12 13 14 15 16 17 18
000
FTUS43 KEAX 261100
TAFMKC
TAF
KMKC 261125Z 2612/2712 24010KT P6SM VCSH OVC035
     FM261500 31015G25KT P6SM OVC025
     FM270300 33011KT P6SM SCT025=

USA.gov is the U.S. government's official web portal to all federal, state and local government web resources and services.